createdAt,value
2018-09-24T00:01:04.192Z,15.10
2018-09-24T00:03:33.110Z,14.43
2018-09-24T00:06:01.829Z,14.83
2018-09-24T00:08:30.630Z,14.03
2018-09-24T00:10:59.608Z,14.20
2018-09-24T00:13:28.590Z,14.13
2018-09-24T00:15:57.413Z,14.67
2018-09-24T00:18:26.208Z,14.50
2018-09-24T00:20:55.031Z,14.00
2018-09-24T00:23:24.022Z,14.73
2018-09-24T00:25:52.707Z,15.50
2018-09-24T00:28:21.568Z,14.67
2018-09-24T00:30:50.662Z,14.30
2018-09-24T00:33:19.561Z,14.47
2018-09-24T00:35:48.444Z,15.90
2018-09-24T00:38:17.353Z,13.77
2018-09-24T00:40:46.517Z,13.33
2018-09-24T00:43:15.669Z,14.33
2018-09-24T00:45:44.735Z,14.43
2018-09-24T00:48:13.504Z,14.53
2018-09-24T00:50:42.134Z,13.53
2018-09-24T00:53:10.840Z,14.77
2018-09-24T00:55:39.697Z,14.80
2018-09-24T00:58:08.683Z,14.43
2018-09-24T01:00:37.614Z,14.43
2018-09-24T01:03:06.702Z,14.37
2018-09-24T01:05:35.895Z,15.33
2018-09-24T01:08:05.011Z,15.73
2018-09-24T01:10:33.897Z,14.10
2018-09-24T01:13:02.775Z,13.10
2018-09-24T01:15:31.745Z,14.00
2018-09-24T01:18:00.582Z,15.60
2018-09-24T01:20:29.322Z,14.70
2018-09-24T01:22:57.907Z,14.43
2018-09-24T01:25:26.538Z,13.97
2018-09-24T01:27:55.394Z,14.97
2018-09-24T01:30:24.359Z,15.60
2018-09-24T01:32:53.266Z,14.97
2018-09-24T01:35:21.985Z,15.20
2018-09-24T01:37:50.939Z,15.17
2018-09-24T01:40:19.935Z,14.40
2018-09-24T01:42:49.174Z,14.80
2018-09-24T01:45:17.927Z,14.93
2018-09-24T01:47:46.773Z,14.97
2018-09-24T01:50:15.514Z,16.60
2018-09-24T01:52:44.254Z,15.10
2018-09-24T01:55:13.039Z,15.80
2018-09-24T01:57:42.056Z,15.50
2018-09-24T02:00:11.102Z,18.37
2018-09-24T02:02:40.062Z,15.60
2018-09-24T02:05:14.847Z,16.03
2018-09-24T02:07:43.829Z,16.33
2018-09-24T02:10:13.002Z,16.13
2018-09-24T02:12:42.207Z,17.87
2018-09-24T02:15:11.113Z,15.97
2018-09-24T02:17:40.012Z,16.47
2018-09-24T02:20:08.670Z,16.13
2018-09-24T02:22:37.830Z,16.73
2018-09-24T02:25:06.889Z,16.67
2018-09-24T02:27:35.788Z,17.23
2018-09-24T02:30:05.139Z,16.67
2018-09-24T02:32:34.036Z,16.23
2018-09-24T02:35:03.026Z,17.27
2018-09-24T02:37:31.937Z,20.40
2018-09-24T02:40:00.830Z,17.40
2018-09-24T02:42:29.626Z,17.83
2018-09-24T02:44:59.394Z,19.03
2018-09-24T02:47:32.544Z,18.10
2018-09-24T02:50:02.779Z,17.90
2018-09-24T02:52:31.485Z,19.57
2018-09-24T02:55:00.515Z,18.40
2018-09-24T02:57:29.335Z,19.73
2018-09-24T02:59:58.327Z,18.27
2018-09-24T03:02:27.126Z,16.73
2018-09-24T03:04:57.005Z,17.73
2018-09-24T03:07:25.843Z,18.47
2018-09-24T03:09:54.923Z,19.53
2018-09-24T03:12:24.014Z,18.80
2018-09-24T03:14:53.027Z,19.17
2018-09-24T03:17:22.184Z,19.57
2018-09-24T03:19:50.775Z,19.97
2018-09-24T03:22:22.625Z,19.33
2018-09-24T03:24:51.864Z,19.50
2018-09-24T03:27:20.950Z,19.00
2018-09-24T03:29:49.707Z,18.50
2018-09-24T03:32:18.607Z,19.60
2018-09-24T03:34:47.531Z,18.93
2018-09-24T03:37:16.468Z,19.20
2018-09-24T03:39:45.443Z,19.50
2018-09-24T03:42:14.312Z,20.43
2018-09-24T03:44:43.462Z,18.83
2018-09-24T03:47:12.661Z,20.30
2018-09-24T03:49:41.310Z,21.10
2018-09-24T03:52:10.070Z,20.97
2018-09-24T03:54:38.800Z,19.93
2018-09-24T03:57:07.613Z,20.57
2018-09-24T03:59:36.451Z,22.00
2018-09-24T04:02:05.130Z,22.67
2018-09-24T04:04:39.387Z,23.23
2018-09-24T04:07:13.351Z,21.80
2018-09-24T04:09:47.607Z,22.47
2018-09-24T04:12:21.366Z,23.47
2018-09-24T04:14:55.800Z,21.87
2018-09-24T04:17:29.784Z,23.00
2018-09-24T04:20:03.947Z,22.43
2018-09-24T04:22:37.879Z,22.47
2018-09-24T04:25:11.983Z,23.10
2018-09-24T04:27:45.994Z,23.10
2018-09-24T04:30:19.939Z,22.10
2018-09-24T04:32:54.064Z,23.23
2018-09-24T04:35:28.298Z,24.37
2018-09-24T04:38:02.626Z,23.50
2018-09-24T04:40:36.623Z,22.77
2018-09-24T04:43:10.686Z,23.93
2018-09-24T04:45:44.567Z,25.13
2018-09-24T04:48:18.339Z,24.50
2018-09-24T04:50:52.519Z,29.07
2018-09-24T04:53:26.491Z,24.33
2018-09-24T04:56:00.803Z,22.40
2018-09-24T04:58:34.865Z,26.57
2018-09-24T05:01:08.865Z,24.47
2018-09-24T05:03:42.768Z,23.20
2018-09-24T05:06:16.947Z,22.87
2018-09-24T05:08:50.982Z,23.13
2018-09-24T05:11:25.198Z,22.80
2018-09-24T05:13:59.004Z,23.13
2018-09-24T05:16:32.894Z,23.27
2018-09-24T05:19:06.813Z,23.03
2018-09-24T05:21:40.691Z,23.77
2018-09-24T05:24:14.806Z,22.97
2018-09-24T05:26:48.743Z,22.83
2018-09-24T05:29:22.634Z,21.67
2018-09-24T05:31:56.801Z,22.73
2018-09-24T05:34:30.818Z,22.33
2018-09-24T05:37:04.996Z,20.80
2018-09-24T05:39:39.225Z,21.33
2018-09-24T05:42:13.619Z,20.17
2018-09-24T05:44:47.733Z,21.17
2018-09-24T05:47:21.698Z,20.37
2018-09-24T05:49:55.837Z,21.63
2018-09-24T05:52:29.632Z,20.50
2018-09-24T05:55:03.596Z,22.70
2018-09-24T05:57:37.724Z,25.23
2018-09-24T06:00:12.090Z,25.30
2018-09-24T06:02:46.098Z,24.00
2018-09-24T06:05:19.982Z,24.07
2018-09-24T06:07:53.908Z,23.17
2018-09-24T06:10:27.830Z,23.30
2018-09-24T06:13:01.880Z,24.07
2018-09-24T06:15:36.076Z,23.57
2018-09-24T06:18:09.888Z,23.77
2018-09-24T06:20:44.012Z,22.57
2018-09-24T06:23:18.314Z,21.90
2018-09-24T06:25:52.412Z,24.67
2018-09-24T06:28:26.328Z,22.53
2018-09-24T06:31:00.287Z,22.17
2018-09-24T06:33:34.398Z,23.63
2018-09-24T06:36:08.546Z,23.67
2018-09-24T06:38:42.613Z,23.90
2018-09-24T06:41:16.378Z,22.57
2018-09-24T06:43:50.243Z,21.17
2018-09-24T06:46:24.296Z,22.80
2018-09-24T06:48:58.120Z,24.03
2018-09-24T06:51:32.829Z,22.53
2018-09-24T06:54:06.887Z,24.93
2018-09-24T06:56:40.837Z,24.93
2018-09-24T06:59:14.882Z,23.50
2018-09-24T07:01:48.924Z,25.10
2018-09-24T07:04:22.932Z,24.37
2018-09-24T07:06:56.864Z,23.77
2018-09-24T07:09:30.711Z,24.97
2018-09-24T07:12:04.704Z,24.33
2018-09-24T07:14:38.867Z,24.83
2018-09-24T07:17:12.851Z,23.17
2018-09-24T07:19:46.845Z,23.17
2018-09-24T07:22:21.112Z,22.23
2018-09-24T07:24:55.343Z,23.27
2018-09-24T07:27:29.250Z,23.13
2018-09-24T07:30:03.472Z,22.57
2018-09-24T07:32:37.468Z,22.33
2018-09-24T07:35:11.794Z,21.87
2018-09-24T07:37:45.976Z,22.07
2018-09-24T07:40:19.751Z,21.70
2018-09-24T07:42:53.773Z,21.33
2018-09-24T07:45:27.862Z,20.27
2018-09-24T07:48:01.844Z,21.57
2018-09-24T07:50:36.248Z,18.60
2018-09-24T07:53:10.379Z,21.40
2018-09-24T07:55:44.323Z,17.93
2018-09-24T07:58:18.481Z,17.73
2018-09-24T08:00:52.427Z,16.67
2018-09-24T08:03:26.519Z,17.42
2018-09-24T08:06:00.418Z,14.28
2018-09-24T08:08:34.648Z,18.87
2018-09-24T08:11:09.617Z,20.27
2018-09-24T08:13:43.618Z,19.50
2018-09-24T08:16:17.772Z,17.65
2018-09-24T08:18:52.011Z,16.37
2018-09-24T08:21:26.354Z,16.37
2018-09-24T08:24:00.538Z,16.32
2018-09-24T08:26:34.352Z,16.20
2018-09-24T08:29:08.383Z,15.88
2018-09-24T08:31:42.399Z,16.55
2018-09-24T08:34:16.535Z,15.08
2018-09-24T08:36:50.680Z,15.95
2018-09-24T08:39:24.975Z,15.13
2018-09-24T08:41:58.897Z,13.50
2018-09-24T08:44:32.831Z,16.95
2018-09-24T08:47:06.744Z,14.75
2018-09-24T08:49:40.840Z,13.55
2018-09-24T08:52:14.969Z,13.35
2018-09-24T08:54:48.956Z,14.65
2018-09-24T08:57:23.035Z,11.97
2018-09-24T08:59:57.129Z,13.85
2018-09-24T09:02:31.479Z,12.45
2018-09-24T09:05:05.288Z,11.65
2018-09-24T09:07:39.306Z,11.57
2018-09-24T09:10:13.148Z,13.53
2018-09-24T09:12:47.291Z,12.63
2018-09-24T09:15:21.131Z,11.97
2018-09-24T09:17:55.250Z,10.65
2018-09-24T09:20:29.384Z,12.33
2018-09-24T09:23:03.333Z,11.28
2018-09-24T09:25:37.413Z,18.45
2018-09-24T09:28:11.257Z,12.00
2018-09-24T09:30:45.259Z,11.83
2018-09-24T09:33:19.223Z,8.45
2018-09-24T09:35:53.189Z,4.95
2018-09-24T09:38:27.116Z,5.17
2018-09-24T09:41:01.447Z,5.37
2018-09-24T09:43:35.719Z,4.58
2018-09-24T09:46:09.808Z,5.00
2018-09-24T09:48:43.675Z,4.95
2018-09-24T09:51:17.959Z,5.22
2018-09-24T09:53:52.082Z,4.53
2018-09-24T09:56:26.179Z,5.62
2018-09-24T09:59:00.025Z,5.35
2018-09-24T10:01:33.908Z,5.05
2018-09-24T10:04:07.939Z,5.78
2018-09-24T10:06:41.578Z,5.92
2018-09-24T10:09:15.454Z,4.90
2018-09-24T10:11:49.542Z,5.33
2018-09-24T10:14:23.899Z,4.50
2018-09-24T10:16:57.624Z,4.08
2018-09-24T10:19:31.787Z,5.15
2018-09-24T10:22:05.695Z,4.35
2018-09-24T10:24:39.627Z,3.85
2018-09-24T10:27:13.822Z,3.95
2018-09-24T10:29:47.747Z,3.80
2018-09-24T10:32:21.997Z,4.20
2018-09-24T10:34:55.973Z,3.95
2018-09-24T10:37:29.895Z,3.33
2018-09-24T10:40:04.002Z,3.95
2018-09-24T10:42:38.130Z,4.20
2018-09-24T10:45:12.315Z,4.70
2018-09-24T10:47:46.275Z,4.15
2018-09-24T10:50:20.258Z,4.17
2018-09-24T10:52:54.113Z,3.47
2018-09-24T10:55:28.057Z,3.60
2018-09-24T10:58:02.147Z,3.90
2018-09-24T11:00:36.299Z,3.75
2018-09-24T11:03:10.041Z,4.20
2018-09-24T11:05:43.814Z,3.92
2018-09-24T11:08:17.575Z,4.60
2018-09-24T11:10:51.606Z,4.08
2018-09-24T11:13:25.830Z,4.15
2018-09-24T11:16:00.964Z,3.90
2018-09-24T11:18:36.104Z,4.05
2018-09-24T11:21:10.159Z,4.35
2018-09-24T11:23:44.095Z,4.97
2018-09-24T11:28:52.543Z,4.22
2018-09-24T11:31:26.386Z,4.60
2018-09-24T11:34:00.353Z,3.83
2018-09-24T11:36:34.504Z,4.67
2018-09-24T11:39:08.743Z,6.83
2018-09-24T11:41:43.160Z,7.45
2018-09-24T11:44:17.372Z,7.58
2018-09-24T11:46:51.785Z,7.30
2018-09-24T11:49:25.714Z,8.58
2018-09-24T11:52:06.970Z,14.30
2018-09-24T11:54:41.283Z,11.83
2018-09-24T11:57:15.699Z,12.45
2018-09-24T11:59:49.517Z,11.97
2018-09-24T12:02:23.885Z,11.48
2018-09-24T12:04:57.752Z,10.80
2018-09-24T12:07:31.850Z,11.03
2018-09-24T12:10:05.825Z,12.73
2018-09-24T12:12:40.231Z,12.47
2018-09-24T12:15:14.062Z,10.43
2018-09-24T12:17:48.821Z,11.50
2018-09-24T12:20:23.028Z,9.80
2018-09-24T12:22:57.066Z,8.43
2018-09-24T12:25:31.223Z,10.17
2018-09-24T12:28:06.166Z,8.33
2018-09-24T12:30:39.895Z,7.13
2018-09-24T12:33:13.866Z,9.07
2018-09-24T12:35:47.857Z,6.73
2018-09-24T12:38:22.037Z,6.83
2018-09-24T12:40:55.975Z,7.53
2018-09-24T12:43:30.398Z,7.70
2018-09-24T12:46:04.456Z,6.17
2018-09-24T12:48:38.860Z,5.77
2018-09-24T12:51:12.698Z,6.97
2018-09-24T12:53:47.247Z,6.10
2018-09-24T12:56:21.450Z,5.47
2018-09-24T12:58:55.586Z,5.80
2018-09-24T13:01:29.481Z,7.27
2018-09-24T13:04:03.667Z,5.13
2018-09-24T13:06:37.654Z,6.30
2018-09-24T13:09:12.855Z,4.00
2018-09-24T13:11:46.826Z,4.73
2018-09-24T13:14:21.091Z,3.80
2018-09-24T13:16:55.003Z,5.87
2018-09-24T13:19:29.051Z,4.53
2018-09-24T13:22:03.011Z,5.10
2018-09-24T13:24:37.131Z,3.33
2018-09-24T13:27:11.319Z,3.63
2018-09-24T13:29:45.325Z,3.67
2018-09-24T13:32:19.145Z,3.13
2018-09-24T13:34:53.219Z,3.50
2018-09-24T13:37:27.330Z,2.37
2018-09-24T13:40:01.591Z,1.97
2018-09-24T13:42:35.642Z,1.57
2018-09-24T13:45:09.936Z,2.20
2018-09-24T13:47:44.159Z,1.40
2018-09-24T13:50:18.387Z,1.70
2018-09-24T13:52:52.695Z,1.30
2018-09-24T13:55:26.975Z,1.77
2018-09-24T13:58:00.873Z,1.20
2018-09-24T14:00:35.295Z,1.30
2018-09-24T14:03:09.116Z,1.70
2018-09-24T14:05:43.462Z,1.53
2018-09-24T14:08:17.374Z,1.10
2018-09-24T14:10:51.403Z,0.93
2018-09-24T14:13:25.562Z,1.63
2018-09-24T14:16:00.193Z,0.90
2018-09-24T14:18:34.351Z,1.30
2018-09-24T14:21:08.463Z,1.03
2018-09-24T14:23:42.619Z,0.70
2018-09-24T14:26:16.664Z,0.87
2018-09-24T14:28:50.366Z,0.80
2018-09-24T14:31:24.359Z,1.20
2018-09-24T14:33:58.383Z,0.93
2018-09-24T14:36:32.944Z,1.03
2018-09-24T14:39:06.923Z,1.30
2018-09-24T14:41:41.041Z,1.07
2018-09-24T14:44:14.894Z,0.80
2018-09-24T14:46:49.231Z,0.90
2018-09-24T14:49:23.680Z,1.07
2018-09-24T14:51:57.868Z,1.20
2018-09-24T14:54:31.562Z,0.70
2018-09-24T14:57:05.226Z,0.70
2018-09-24T14:59:39.000Z,0.90
2018-09-24T15:02:13.168Z,0.50
2018-09-24T15:04:47.235Z,0.93
2018-09-24T15:07:21.390Z,0.90
2018-09-24T15:09:55.266Z,0.77
2018-09-24T15:12:29.794Z,1.53
2018-09-24T15:15:03.903Z,0.90
2018-09-24T15:17:37.995Z,0.70
2018-09-24T15:20:11.900Z,0.80
2018-09-24T15:22:46.265Z,1.43
2018-09-24T15:25:20.005Z,0.73
2018-09-24T15:27:53.872Z,1.13
2018-09-24T15:30:28.030Z,1.97
2018-09-24T15:33:02.597Z,0.90
2018-09-24T15:35:36.566Z,0.73
2018-09-24T15:38:10.724Z,1.20
2018-09-24T15:40:44.692Z,1.50
2018-09-24T15:43:19.303Z,1.40
2018-09-24T15:45:53.562Z,1.60
2018-09-24T15:48:27.594Z,1.87
2018-09-24T15:51:01.776Z,1.50
2018-09-24T15:53:35.612Z,1.30
2018-09-24T15:56:09.422Z,1.40
2018-09-24T15:58:43.496Z,1.60
2018-09-24T16:01:17.350Z,1.73
2018-09-24T16:03:51.473Z,2.00
2018-09-24T16:06:25.564Z,2.10
2018-09-24T16:08:59.977Z,1.67
2018-09-24T16:11:33.857Z,1.60
2018-09-24T16:14:08.246Z,1.33
2018-09-24T16:16:42.322Z,1.57
2018-09-24T16:19:16.514Z,1.20
2018-09-24T16:21:50.275Z,1.23
2018-09-24T16:24:24.366Z,1.20
2018-09-24T16:26:58.117Z,1.47
2018-09-24T16:29:32.037Z,1.30
2018-09-24T16:32:06.030Z,1.20
2018-09-24T16:34:40.355Z,1.17
2018-09-24T16:37:14.403Z,1.30
2018-09-24T16:39:48.573Z,1.30
2018-09-24T16:42:22.651Z,1.40
2018-09-24T16:44:56.935Z,1.87
2018-09-24T16:47:30.858Z,1.13
2018-09-24T16:50:05.325Z,1.40
2018-09-24T16:52:39.474Z,1.17
2018-09-24T16:55:13.662Z,1.20
2018-09-24T16:57:47.706Z,1.50
2018-09-24T17:00:21.922Z,1.10
2018-09-24T17:02:55.715Z,1.30
2018-09-24T17:05:30.034Z,1.07
2018-09-24T17:08:04.039Z,1.60
2018-09-24T17:10:38.446Z,1.30
2018-09-24T17:13:12.478Z,1.30
2018-09-24T17:15:46.413Z,1.60
2018-09-24T17:18:20.572Z,1.63
2018-09-24T17:20:54.266Z,1.47
2018-09-24T17:23:27.948Z,1.60
2018-09-24T17:26:01.795Z,1.97
2018-09-24T17:28:35.782Z,2.13
2018-09-24T17:31:09.858Z,1.50
2018-09-24T17:33:44.018Z,1.80
2018-09-24T17:36:18.287Z,2.20
2018-09-24T17:38:52.328Z,1.60
2018-09-24T17:41:26.587Z,1.50
2018-09-24T17:44:00.519Z,1.77
2018-09-24T17:46:34.601Z,1.70
2018-09-24T17:49:08.518Z,2.03
2018-09-24T17:51:42.715Z,2.90
2018-09-24T17:54:16.503Z,3.00
2018-09-24T17:56:50.330Z,2.80
2018-09-24T17:59:24.251Z,3.13
2018-09-24T18:01:58.591Z,3.57
2018-09-24T18:04:32.475Z,3.60
2018-09-24T18:07:06.802Z,3.87
2018-09-24T18:09:40.715Z,4.13
2018-09-24T18:12:14.503Z,4.77
2018-09-24T18:14:48.442Z,4.87
2018-09-24T18:17:22.759Z,5.30
2018-09-24T18:19:57.053Z,4.57
2018-09-24T18:22:31.183Z,5.37
2018-09-24T18:25:05.055Z,4.40
2018-09-24T18:27:39.571Z,4.80
2018-09-24T18:30:13.430Z,5.50
2018-09-24T18:32:47.679Z,5.10
2018-09-24T18:35:21.724Z,4.57
2018-09-24T18:37:56.352Z,4.33
2018-09-24T18:40:30.206Z,4.57
2018-09-24T18:43:04.618Z,4.67
2018-09-24T18:45:38.435Z,4.93
2018-09-24T18:48:12.559Z,3.97
2018-09-24T18:50:46.270Z,4.10
2018-09-24T18:53:20.203Z,3.53
2018-09-24T18:55:54.608Z,4.07
2018-09-24T18:58:28.574Z,3.87
2018-09-24T19:01:02.434Z,4.07
2018-09-24T19:03:36.726Z,4.40
2018-09-24T19:06:11.060Z,4.67
2018-09-24T19:08:45.108Z,4.37
2018-09-24T19:11:27.703Z,3.90
2018-09-24T19:13:53.787Z,4.10
2018-09-24T19:16:27.559Z,4.33
2018-09-24T19:19:01.433Z,4.87
2018-09-24T19:21:35.259Z,4.30
2018-09-24T19:24:09.142Z,4.93
2018-09-24T19:26:43.310Z,4.97
2018-09-24T19:29:17.461Z,5.03
2018-09-24T19:31:51.505Z,5.20
2018-09-24T19:34:25.281Z,4.77
2018-09-24T19:36:59.255Z,4.67
2018-09-24T19:39:33.250Z,4.47
2018-09-24T19:42:07.165Z,4.13
2018-09-24T19:44:41.518Z,4.73
2018-09-24T19:47:15.447Z,4.43
2018-09-24T19:49:49.411Z,4.37
2018-09-24T19:52:23.258Z,2.70
2018-09-24T19:54:57.879Z,4.23
2018-09-24T19:57:32.163Z,4.10
2018-09-24T20:00:06.279Z,3.47
2018-09-24T20:02:40.166Z,3.83
2018-09-24T20:05:14.519Z,4.37
2018-09-24T20:07:48.582Z,4.33
2018-09-24T20:10:22.901Z,3.93
2018-09-24T20:12:57.027Z,3.70
2018-09-24T20:15:31.181Z,4.23
2018-09-24T20:18:05.030Z,5.33
2018-09-24T20:20:39.075Z,7.00
2018-09-24T20:23:12.819Z,5.60
2018-09-24T20:25:47.437Z,5.33
2018-09-24T20:28:21.493Z,5.13
2018-09-24T20:30:56.051Z,4.60
2018-09-24T20:33:30.043Z,4.50
2018-09-24T20:36:04.422Z,4.13
2018-09-24T20:38:38.352Z,4.60
2018-09-24T20:41:12.704Z,2.97
2018-09-24T20:43:46.614Z,2.57
2018-09-24T20:46:20.751Z,2.20
2018-09-24T20:48:54.619Z,1.67
2018-09-24T20:51:29.194Z,1.30
2018-09-24T20:54:03.251Z,1.30
2018-09-24T20:56:37.580Z,1.60
2018-09-24T20:59:11.492Z,1.47
2018-09-24T21:01:45.882Z,1.90
2018-09-24T21:04:19.866Z,1.30
2018-09-24T21:06:54.080Z,1.17
2018-09-24T21:09:28.079Z,1.40
2018-09-24T21:12:02.189Z,1.17
2018-09-24T21:14:36.238Z,1.10
2018-09-24T21:17:10.544Z,1.30
2018-09-24T21:19:44.938Z,1.30
2018-09-24T21:22:18.782Z,1.30
2018-09-24T21:24:52.778Z,1.10
2018-09-24T21:27:27.208Z,1.40
2018-09-24T21:30:01.115Z,1.40
2018-09-24T21:32:35.104Z,1.27
2018-09-24T21:35:09.208Z,1.43
2018-09-24T21:37:43.351Z,1.43
2018-09-24T21:40:17.407Z,1.50
2018-09-24T21:42:51.842Z,1.77
2018-09-24T21:45:25.719Z,1.70
2018-09-24T21:47:59.988Z,1.40
2018-09-24T21:50:33.607Z,1.60
2018-09-24T21:53:07.562Z,1.40
2018-09-24T21:55:41.693Z,1.47
2018-09-24T21:58:15.742Z,1.50
2018-09-24T22:00:49.546Z,1.80
2018-09-24T22:03:23.655Z,1.77
2018-09-24T22:05:57.715Z,1.70
2018-09-24T22:08:32.133Z,1.70
2018-09-24T22:11:06.162Z,1.50
2018-09-24T22:13:40.351Z,1.50
2018-09-24T22:16:14.196Z,1.63
2018-09-24T22:18:47.902Z,1.83
2018-09-24T22:21:21.700Z,1.60
2018-09-24T22:23:55.942Z,1.90
2018-09-24T22:26:30.138Z,2.10
2018-09-24T22:29:04.196Z,1.83
2018-09-24T22:31:38.058Z,1.90
2018-09-24T22:34:12.314Z,2.10
2018-09-24T22:36:46.535Z,2.40
2018-09-24T22:39:20.458Z,2.73
2018-09-24T22:41:54.741Z,2.77
2018-09-24T22:44:29.068Z,2.40
2018-09-24T22:47:02.777Z,2.70
2018-09-24T22:49:36.915Z,2.63
2018-09-24T22:52:10.747Z,3.20
2018-09-24T22:54:45.032Z,2.57
2018-09-24T22:57:19.177Z,2.67
2018-09-24T22:59:53.367Z,2.80
2018-09-24T23:02:27.153Z,2.87
2018-09-24T23:05:01.431Z,2.87
2018-09-24T23:07:35.485Z,3.30
2018-09-24T23:10:09.798Z,2.80
2018-09-24T23:12:43.926Z,2.97
2018-09-24T23:15:18.011Z,3.20
2018-09-24T23:17:51.865Z,3.50
2018-09-24T23:20:25.662Z,3.10
2018-09-24T23:23:00.168Z,3.23
2018-09-24T23:25:34.027Z,3.17
2018-09-24T23:28:08.098Z,3.20
2018-09-24T23:30:42.028Z,3.77
2018-09-24T23:33:16.262Z,2.63
2018-09-24T23:35:50.164Z,3.23
2018-09-24T23:38:24.059Z,3.90
2018-09-24T23:40:57.991Z,3.40
2018-09-24T23:43:32.000Z,3.27
2018-09-24T23:46:05.874Z,3.50
2018-09-24T23:48:39.750Z,3.97
2018-09-24T23:51:13.854Z,3.30
2018-09-24T23:53:48.373Z,3.10
2018-09-24T23:56:22.241Z,3.57
2018-09-24T23:58:56.030Z,3.07
